Time;durP1;ratioP1;P1;durP2;ratioP2;P2;SDS_P1;SDS_P2;PMS_P1;PMS_P2;Temp;Humidity;BMP_temperature;BMP_pressure;BME280_temperature;BME280_humidity;BME280_pressure;Samples;Min_cycle;Max_cycle;Signal;HPM_P1;HPM_P2
2023/04/21 00:00:59;;;;;;;44.27;32.43;;;;;;;;;;4959437;28;20450;-94
2023/04/21 00:03:28;;;;;;;12.97;10.67;;;3.00;99.90;;;;;;4959490;28;20446;-89
2023/04/21 00:05:57;;;;;;;86.20;50.17;;;;;;;;;;4953993;29;20502;-88
2023/04/21 00:08:25;;;;;;;37.10;31.47;;;;;;;;;;4959703;28;20486;-89
2023/04/21 00:10:52;;;;;;;100.27;54.20;;;;;;;;;;4958985;28;20474;-87
2023/04/21 00:13:19;;;;;;;18.90;12.37;;;;;;;;;;4959306;28;20455;-93
2023/04/21 00:15:47;;;;;;;18.53;14.13;;;;;;;;;;4956240;29;20444;-92
2023/04/21 00:18:15;;;;;;;29.57;23.63;;;;;;;;;;4958841;28;20462;-90
2023/04/21 00:20:42;;;;;;;14.70;11.30;;;;;;;;;;4958158;28;20469;-90
2023/04/21 00:23:10;;;;;;;31.63;23.27;;;;;;;;;;4958885;28;20502;-84
2023/04/21 00:25:37;;;;;;;105.60;55.23;;;;;;;;;;4958991;28;20571;-93
2023/04/21 00:28:04;;;;;;;15.97;10.67;;;;;;;;;;4959298;28;20834;-92
2023/04/21 00:30:32;;;;;;;16.93;10.40;;;;;;;;;;4959213;28;20450;-90
2023/04/21 00:33:00;;;;;;;34.20;24.53;;;;;;;;;;4959045;28;20442;-86
2023/04/21 00:35:27;;;;;;;139.00;77.73;;;;;;;;;;4957188;28;20451;-90
2023/04/21 00:37:54;;;;;;;102.77;51.87;;;;;;;;;;4959020;28;20447;-89
2023/04/21 00:40:21;;;;;;;17.20;11.10;;;;;;;;;;4958598;28;20450;-93
2023/04/21 00:42:49;;;;;;;14.40;10.53;;;;;;;;;;4958790;28;20439;-92
2023/04/21 00:45:16;;;;;;;119.13;59.30;;;;;;;;;;4958550;28;20453;-87
2023/04/21 00:47:43;;;;;;;126.23;61.13;;;;;;;;;;4958494;28;20493;-88
2023/04/21 00:50:12;;;;;;;132.83;63.60;;;;;;;;;;4958243;28;20453;-81
2023/04/21 00:52:40;;;;;;;50.50;34.67;;;;;;;;;;4957793;28;20458;-86
2023/04/21 00:55:08;;;;;;;17.00;11.73;;;;;;;;;;4957820;28;20455;-93
2023/04/21 00:57:36;;;;;;;14.37;9.03;;;3.00;99.90;;;;;;4958457;28;20451;-86
2023/04/21 01:00:07;;;;;;;14.70;11.30;;;;;;;;;;4958521;28;20479;-91
2023/04/21 01:02:36;;;;;;;10.63;7.60;;;3.00;99.90;;;;;;4958439;28;20937;-92
2023/04/21 01:05:05;;;;;;;11.67;8.03;;;;;;;;;;4958351;28;20447;-91
2023/04/21 01:07:34;;;;;;;11.57;9.33;;;;;;;;;;4956787;29;20499;-92
2023/04/21 01:10:01;;;;;;;12.40;7.87;;;;;;;;;;4958356;28;20478;-91
2023/04/21 01:12:28;;;;;;;10.80;7.40;;;;;;;;;;4958742;29;20439;-92
2023/04/21 01:14:55;;;;;;;10.60;8.00;;;;;;;;;;4958739;29;20439;-91
2023/04/21 01:17:22;;;;;;;11.93;8.30;;;;;;;;;;4958182;29;20462;-86
2023/04/21 01:19:50;;;;;;;10.00;7.50;;;2.70;99.90;;;;;;4958086;29;20487;-93
2023/04/21 01:22:19;;;;;;;13.03;8.27;;;;;;;;;;4957039;28;20475;-91
2023/04/21 01:24:47;;;;;;;13.40;8.93;;;2.60;99.90;;;;;;4958072;29;20447;-89
2023/04/21 01:27:17;;;;;;;13.57;8.33;;;2.50;99.90;;;;;;4958197;28;20786;-92
2023/04/21 01:29:46;;;;;;;12.37;8.13;;;2.50;99.90;;;;;;4958043;28;20451;-84
2023/04/21 01:32:16;;;;;;;12.43;8.40;;;2.50;99.90;;;;;;4957125;28;20455;-81
2023/04/21 01:34:43;;;;;;;13.03;9.03;;;;;;;;;;4956901;28;20447;-81
2023/04/21 01:37:10;;;;;;;11.37;8.73;;;;;;;;;;4956760;29;20865;-91
2023/04/21 01:39:39;;;;;;;10.60;7.73;;;;;;;;;;4957521;29;20447;-91
2023/04/21 01:42:07;;;;;;;11.23;7.80;;;;;;;;;;4957728;29;20818;-92
2023/04/21 01:44:34;;;;;;;14.43;9.60;;;;;;;;;;4957817;29;20526;-91
2023/04/21 01:47:02;;;;;;;13.00;8.67;;;;;;;;;;4957581;29;20451;-91
2023/04/21 01:49:29;;;;;;;10.90;6.93;;;;;;;;;;4957635;28;20498;-92
2023/04/21 01:51:56;;;;;;;13.17;7.53;;;;;;;;;;4956549;29;20439;-93
2023/04/21 01:54:23;;;;;;;12.33;7.93;;;;;;;;;;4957171;29;20447;-92
2023/04/21 01:56:52;;;;;;;11.73;6.90;;;;;;;;;;4957457;29;20455;-91
2023/04/21 01:59:19;;;;;;;10.33;7.63;;;;;;;;;;4956708;29;20482;-83
2023/04/21 02:01:46;;;;;;;11.03;7.47;;;;;;;;;;4957304;29;20443;-88
2023/04/21 02:04:13;;;;;;;10.43;7.00;;;;;;;;;;4956940;29;20959;-88
2023/04/21 02:06:40;;;;;;;9.20;6.93;;;;;;;;;;4955787;28;20479;-89
2023/04/21 02:09:07;;;;;;;11.17;6.80;;;;;;;;;;4956921;28;20522;-88
2023/04/21 02:11:35;;;;;;;9.60;7.03;;;;;;;;;;4957331;29;20439;-88
2023/04/21 02:14:03;;;;;;;10.63;7.23;;;;;;;;;;4956827;29;20447;-90
2023/04/21 02:16:30;;;;;;;10.00;7.23;;;2.00;99.90;;;;;;4956992;29;20894;-87
2023/04/21 02:18:58;;;;;;;6.73;5.63;;;;;;;;;;4956716;28;20451;-91
2023/04/21 02:21:26;;;;;;;9.53;7.27;;;;;;;;;;4955962;29;20443;-90
2023/04/21 02:23:53;;;;;;;10.83;7.57;;;;;;;;;;4956641;28;20494;-88
2023/04/21 02:26:20;;;;;;;10.60;6.70;;;;;;;;;;4956534;29;20447;-90
2023/04/21 02:28:48;;;;;;;12.23;8.00;;;;;;;;;;4956871;29;20487;-92
2023/04/21 02:31:17;;;;;;;12.03;6.70;;;;;;;;;;4956655;29;20986;-90
2023/04/21 02:33:44;;;;;;;12.40;7.20;;;;;;;;;;4957188;29;20443;-93
2023/04/21 02:36:12;;;;;;;10.10;6.73;;;;;;;;;;4955458;29;20443;-88
2023/04/21 02:38:39;;;;;;;9.13;6.90;;;;;;;;;;4956273;29;20447;-91
2023/04/21 02:41:06;;;;;;;9.90;6.97;;;;;;;;;;4956499;29;20497;-89
2023/04/21 02:43:34;;;;;;;9.87;7.10;;;;;;;;;;4956541;29;20449;-92
2023/04/21 02:46:06;;;;;;;10.83;7.10;;;1.80;99.90;;;;;;4956544;29;20498;-92
2023/04/21 02:48:34;;;;;;;12.73;7.03;;;;;;;;;;4955626;29;20495;-91
2023/04/21 02:51:01;;;;;;;10.07;6.20;;;;;;;;;;4955356;29;20443;-89
2023/04/21 02:53:28;;;;;;;12.53;7.70;;;;;;;;;;4956501;29;20440;-84
2023/04/21 02:55:55;;;;;;;8.10;7.03;;;;;;;;;;4956400;29;20442;-91
2023/04/21 02:58:22;;;;;;;10.90;6.50;;;;;;;;;;4956442;28;20824;-88
2023/04/21 03:00:50;;;;;;;9.77;7.17;;;;;;;;;;4955991;29;20506;-90
2023/04/21 03:03:17;;;;;;;8.80;6.80;;;;;;;;;;4957220;28;20810;-89
2023/04/21 03:05:45;;;;;;;11.17;6.83;;;;;;;;;;4955635;29;20474;-87
2023/04/21 03:08:13;;;;;;;11.87;7.00;;;;;;;;;;4955812;28;20494;-89
2023/04/21 03:10:40;;;;;;;12.93;8.40;;;;;;;;;;4955941;29;20456;-87
2023/04/21 03:13:07;;;;;;;11.27;7.20;;;;;;;;;;4955836;29;20435;-87
2023/04/21 03:15:34;;;;;;;9.77;6.70;;;;;;;;;;4956089;29;20809;-89
2023/04/21 03:18:01;;;;;;;11.03;7.33;;;;;;;;;;4955854;29;20451;-89
2023/04/21 03:20:28;;;;;;;12.80;7.93;;;;;;;;;;4954744;29;20510;-88
2023/04/21 03:22:57;;;;;;;10.33;6.73;;;;;;;;;;4955667;29;20451;-81
2023/04/21 03:25:26;;;;;;;10.30;6.50;;;;;;;;;;4955869;28;20927;-88
2023/04/21 03:27:53;;;;;;;11.17;7.63;;;;;;;;;;4955788;29;20576;-90
2023/04/21 03:30:20;;;;;;;13.40;7.57;;;;;;;;;;4956082;29;20439;-81
2023/04/21 03:32:47;;;;;;;11.00;8.03;;;;;;;;;;4955940;29;20461;-86
2023/04/21 03:35:15;;;;;;;9.53;7.03;;;;;;;;;;4954864;29;20455;-88
2023/04/21 03:37:42;;;;;;;12.13;8.20;;;;;;;;;;4955751;29;20440;-90
2023/04/21 03:40:11;;;;;;;11.70;7.50;;;1.80;99.90;;;;;;4956112;28;20447;-87
2023/04/21 03:42:38;;;;;;;10.43;6.73;;;;;;;;;;4956087;28;20455;-85
2023/04/21 03:45:06;;;;;;;9.40;6.47;;;2.00;99.90;;;;;;4955488;29;20818;-91
2023/04/21 03:47:33;;;;;;;12.40;7.33;;;;;;;;;;4955656;28;20479;-83
2023/04/21 03:50:00;;;;;;;9.60;6.73;;;;;;;;;;4955519;29;20517;-87
2023/04/21 03:52:27;;;;;;;10.30;7.13;;;;;;;;;;4954591;29;20451;-89
2023/04/21 03:54:54;;;;;;;9.47;5.90;;;;;;;;;;4955911;29;20442;-89
2023/04/21 03:57:23;;;;;;;11.57;7.87;;;;;;;;;;4955612;29;20462;-90
2023/04/21 03:59:52;;;;;;;10.93;7.40;;;;;;;;;;4955334;29;20946;-85
2023/04/21 04:02:19;;;;;;;12.00;7.10;;;;;;;;;;4955724;29;20443;-91
2023/04/21 04:04:47;;;;;;;11.03;7.40;;;;;;;;;;4955550;29;20454;-88
2023/04/21 04:07:16;;;;;;;10.80;7.00;;;;;;;;;;4954387;29;20569;-85
2023/04/21 04:09:43;;;;;;;12.53;7.60;;;;;;;;;;4955436;28;20521;-89
2023/04/21 04:12:10;;;;;;;8.80;5.93;;;;;;;;;;4955790;29;20494;-87
2023/04/21 04:14:39;;;;;;;9.47;6.47;;;;;;;;;;4955706;29;20798;-86
2023/04/21 04:17:06;;;;;;;9.33;7.20;;;;;;;;;;4955052;29;20475;-79
2023/04/21 04:19:33;;;;;;;10.63;7.13;;;;;;;;;;4955703;29;20451;-89
2023/04/21 04:22:00;;;;;;;10.00;6.40;;;;;;;;;;4954409;29;20451;-88
2023/04/21 04:24:27;;;;;;;11.17;7.53;;;;;;;;;;4955646;29;20435;-87
2023/04/21 04:26:56;;;;;;;9.73;6.83;;;;;;;;;;4953252;29;20958;-84
2023/04/21 04:29:24;;;;;;;8.00;6.40;;;;;;;;;;4954832;28;20517;-89
2023/04/21 04:31:53;;;;;;;11.87;7.80;;;;;;;;;;4957659;29;20455;-88
2023/04/21 04:34:22;;;;;;;10.90;7.60;;;;;;;;;;4958538;29;20446;-87
2023/04/21 04:36:50;;;;;;;12.13;7.60;;;;;;;;;;4957708;29;20509;-83
2023/04/21 04:39:17;;;;;;;18.23;6.73;;;;;;;;;;4958428;29;21029;-84
2023/04/21 04:41:45;;;;;;;10.47;6.73;;;;;;;;;;4958065;29;20502;-84
2023/04/21 04:44:15;;;;;;;10.03;7.30;;;;;;;;;;4958384;29;20451;-83
2023/04/21 04:46:42;;;;;;;10.87;6.50;;;;;;;;;;4958108;29;20542;-82
2023/04/21 04:49:10;;;;;;;9.27;6.57;;;;;;;;;;4958715;29;20486;-86
2023/04/21 04:51:37;;;;;;;12.10;6.70;;;;;;;;;;4957528;29;20451;-86
2023/04/21 04:54:04;;;;;;;53.47;35.27;;;;;;;;;;4958222;29;20447;-86
2023/04/21 04:56:31;;;;;;;52.60;33.53;;;;;;;;;;4958067;28;20547;-84
2023/04/21 04:58:58;;;;;;;26.87;20.57;;;;;;;;;;4958253;28;20473;-83
2023/04/21 05:01:29;;;;;;;20.83;14.80;;;;;;;;;;4961222;28;20470;-77
2023/04/21 05:03:56;;;;;;;23.47;15.13;;;2.50;99.90;;;;;;4972508;28;20555;-78
2023/04/21 05:06:25;;;;;;;29.47;19.73;;;;;;;;;;4959651;29;20845;-83
2023/04/21 05:08:52;;;;;;;22.80;13.53;;;;;;;;;;4957813;28;20526;-80
2023/04/21 05:11:19;;;;;;;26.23;15.67;;;;;;;;;;4957946;28;20442;-82
2023/04/21 05:13:46;;;;;;;23.10;15.40;;;;;;;;;;4957850;28;21113;-85
2023/04/21 05:16:13;;;;;;;18.87;11.77;;;;;;;;;;4957776;28;20954;-88
2023/04/21 05:18:40;;;;;;;23.87;13.20;;;;;;;;;;4957328;29;20939;-86
2023/04/21 05:21:08;;;;;;;21.93;12.70;;;;;;;;;;4957035;28;20502;-85
2023/04/21 05:23:36;;;;;;;23.33;13.80;;;3.30;99.90;;;;;;4957759;28;20471;-81
2023/04/21 05:26:03;;;;;;;22.37;13.47;;;;;;;;;;4957510;29;21067;-89
2023/04/21 05:28:30;;;;;;;19.67;11.70;;;;;;;;;;4958020;28;20455;-88
2023/04/21 05:30:57;;;;;;;18.37;11.43;;;;;;;;;;4957205;28;20522;-87
2023/04/21 05:33:25;;;;;;;17.90;11.90;;;;;;;;;;4956924;28;20454;-83
2023/04/21 05:35:52;;;;;;;26.37;16.93;;;;;;;;;;4955861;28;20867;-88
2023/04/21 05:38:19;;;;;;;25.57;15.37;;;;;;;;;;4956589;29;20516;-83
2023/04/21 05:40:54;;;;;;;23.07;13.97;;;;;;;;;;4956353;28;20459;-84
2023/04/21 05:43:22;;;;;;;16.87;12.43;;;;;;;;;;4955247;28;20451;-79
2023/04/21 05:45:49;;;;;;;20.23;12.83;;;;;;;;;;4956557;28;20510;-79
2023/04/21 05:48:16;;;;;;;21.17;12.80;;;;;;;;;;4956542;28;20458;-82
2023/04/21 05:50:43;;;;;;;23.07;12.87;;;;;;;;;;4955376;28;20856;-81
2023/04/21 05:53:10;;;;;;;21.13;14.33;;;;;;;;;;4956078;29;20465;-80
2023/04/21 05:55:38;;;;;;;21.67;14.47;;;;;;;;;;4956620;28;20451;-83
2023/04/21 05:58:06;;;;;;;23.80;14.50;;;;;;;;;;4956325;28;20451;-81
2023/04/21 06:00:33;;;;;;;25.73;15.80;;;;;;;;;;4956397;28;20459;-79
2023/04/21 06:03:00;;;;;;;31.27;15.97;;;;;;;;;;4957067;28;20454;-82
2023/04/21 06:05:27;;;;;;;33.30;19.13;;;;;;;;;;4954799;28;20839;-79
2023/04/21 06:07:55;;;;;;;29.97;17.70;;;;;;;;;;4955830;28;20499;-85
2023/04/21 06:10:22;;;;;;;27.27;16.67;;;;;;;;;;4956029;28;20506;-82
2023/04/21 06:12:49;;;;;;;21.83;15.03;;;;;;;;;;4955928;28;20455;-84
2023/04/21 06:15:17;;;;;;;24.00;17.07;;;;;;;;;;4956351;28;20458;-82
2023/04/21 06:17:44;;;;;;;27.00;18.83;;;;;;;;;;4956254;28;20447;-80
2023/04/21 06:20:12;;;;;;;20.70;14.57;;;;;;;;;;4955684;28;20451;-79
2023/04/21 06:22:39;;;;;;;26.20;15.47;;;;;;;;;;4954071;29;20451;-82
2023/04/21 06:25:06;;;;;;;32.17;20.80;;;;;;;;;;4955518;28;20447;-81
2023/04/21 06:27:33;;;;;;;35.53;22.97;;;;;;;;;;4955308;28;20451;-81
2023/04/21 06:30:00;;;;;;;27.67;19.20;;;;;;;;;;4955486;28;20494;-81
2023/04/21 06:32:29;;;;;;;72.60;54.93;;;;;;;;;;4955618;28;20451;-79
2023/04/21 06:34:56;;;;;;;44.20;30.53;;;;;;;;;;4955347;28;20466;-82
2023/04/21 06:37:23;;;;;;;30.73;19.10;;;;;;;;;;4954472;28;20458;-87
2023/04/21 06:39:50;;;;;;;24.07;16.87;;;;;;;;;;4955127;29;20458;-81
2023/04/21 06:42:17;;;;;;;39.63;30.43;;;;;;;;;;4955532;28;20459;-81
2023/04/21 06:44:44;;;;;;;23.77;15.70;;;;;;;;;;4955693;28;20455;-82
2023/04/21 06:47:11;;;;;;;31.57;22.33;;;;;;;;;;4955513;28;20455;-81
2023/04/21 06:49:40;;;;;;;71.40;54.93;;;;;;;;;;4955160;28;20495;-80
2023/04/21 06:52:07;;;;;;;98.10;62.27;;;;;;;;;;4954163;28;20458;-81
2023/04/21 06:54:34;;;;;;;22.93;13.60;;;;;;;;;;4954961;28;20873;-81
2023/04/21 06:57:01;;;;;;;38.87;21.73;;;;;;;;;;4955383;28;20470;-81
2023/04/21 06:59:28;;;;;;;62.73;46.27;;;;;;;;;;4955273;28;20965;-81
2023/04/21 07:01:55;;;;;;;21.07;15.27;;;;;;;;;;4955066;28;20460;-81
2023/04/21 07:04:22;;;;;;;23.70;15.60;;;;;;;;;;4955406;28;20454;-82
2023/04/21 07:06:51;;;;;;;54.07;41.80;;;;;;;;;;4953907;28;20494;-82
2023/04/21 07:09:18;;;;;;;20.80;14.53;;;;;;;;;;4955298;28;20494;-81
2023/04/21 07:11:45;;;;;;;21.20;14.33;;;;;;;;;;4955080;28;20458;-81
2023/04/21 07:14:12;;;;;;;27.00;20.83;;;;;;;;;;4955245;28;20454;-81
2023/04/21 07:16:39;;;;;;;18.50;13.47;;;;;;;;;;4955260;28;20454;-81
2023/04/21 07:19:06;;;;;;;20.77;13.20;;;;;;;;;;4955106;28;20443;-81
2023/04/21 07:21:35;;;;;;;17.83;12.30;;;;;;;;;;4954069;28;20446;-80
2023/04/21 07:24:04;;;;;;;17.43;13.83;;;;;;;;;;4955263;28;20447;-80
2023/04/21 07:26:33;;;;;;;32.17;27.23;;;;;;;;;;4955182;28;20546;-81
2023/04/21 07:29:00;;;;;;;22.00;17.80;;;;;;;;;;4954941;28;20451;-80
2023/04/21 07:31:27;;;;;;;52.70;47.10;;;;;;;;;;4954852;28;20494;-82
2023/04/21 07:33:54;;;;;;;14.63;11.40;;;;;;;;;;4955177;28;20823;-81
2023/04/21 07:36:21;;;;;;;16.33;11.90;;;;;;;;;;4965164;28;20455;-81
2023/04/21 07:38:48;;;;;;;15.20;11.90;;;;;;;;;;4975336;28;20455;-82
2023/04/21 07:41:16;;;;;;;16.40;11.87;;;;;;;;;;4955673;28;20459;-81
2023/04/21 07:43:43;;;;;;;14.03;11.30;;;;;;;;;;4955022;28;20458;-82
2023/04/21 07:46:12;;;;;;;16.40;11.20;;;;;;;;;;4954819;28;20447;-84
2023/04/21 07:48:39;;;;;;;15.47;12.00;;;11.10;99.90;;;;;;4954365;29;20460;-84
2023/04/21 07:51:06;;;;;;;12.60;10.23;;;;;;;;;;4953514;28;20506;-84
2023/04/21 07:53:33;;;;;;;14.03;11.70;;;;;;;;;;4954638;28;20458;-85
2023/04/21 07:56:00;;;;;;;15.10;11.90;;;;;;;;;;4954770;28;20458;-85
2023/04/21 07:58:29;;;;;;;12.67;11.00;;;;;;;;;;4954634;28;20532;-89
2023/04/21 08:00:56;;;;;;;13.17;11.20;;;;;;;;;;4954736;28;20458;-92
2023/04/21 08:03:23;;;;;;;12.83;9.90;;;;;;;;;;4955073;28;20459;-86
2023/04/21 08:05:50;;;;;;;14.53;11.00;;;;;;;;;;4955215;28;20478;-85
2023/04/21 08:08:19;;;;;;;9.67;8.60;;;;;;;;;;4957873;28;20471;-86
2023/04/21 08:10:46;;;;;;;9.27;8.30;;;;;;;;;;4957205;28;20993;-91
2023/04/21 08:13:13;;;;;;;9.93;8.20;;;;;;;;;;4959780;28;20492;-86
2023/04/21 08:15:41;;;;;;;9.70;8.67;;;14.00;96.90;;;;;;4977511;28;20964;-87
2023/04/21 08:18:10;;;;;;;9.10;8.10;;;;;;;;;;4977480;28;20465;-87
2023/04/21 08:20:37;;;;;;;9.67;8.40;;;;;;;;;;4976468;28;20486;-86
2023/04/21 08:23:04;;;;;;;10.47;8.77;;;;;;;;;;4977349;28;20454;-85
2023/04/21 08:25:31;;;;;;;10.57;9.33;;;;;;;;;;4977276;28;20458;-87
2023/04/21 08:27:58;;;;;;;11.93;8.70;;;;;;;;;;4977525;28;20453;-84
2023/04/21 08:30:27;;;;;;;9.27;7.90;;;15.80;93.70;;;;;;4976936;28;20485;-86
2023/04/21 08:32:55;;;;;;;8.33;7.43;;;15.20;94.80;;;;;;4977242;28;20957;-86
2023/04/21 08:35:22;;;;;;;8.67;7.70;;;;;;;;;;4976143;28;20450;-87
2023/04/21 08:37:49;;;;;;;8.77;7.97;;;;;;;;;;4977781;28;20457;-92
2023/04/21 08:40:16;;;;;;;9.33;8.33;;;;;;;;;;4978727;28;20469;-94
2023/04/21 08:42:43;;;;;;;8.37;7.43;;;;;;;;;;4980261;28;20464;-92
2023/04/21 08:45:10;;;;;;;8.33;7.50;;;;;;;;;;4982899;28;20454;-79
2023/04/21 08:47:39;;;;;;;5.80;5.20;;;17.20;90.70;;;;;;4981491;28;20454;-83
2023/04/21 08:50:12;;;;;;;5.17;4.67;;;16.60;86.00;;;;;;4980064;28;20490;-94
2023/04/21 08:52:40;;;;;;;6.63;4.80;;;;;;;;;;4977401;28;20451;-88
2023/04/21 08:55:07;;;;;;;5.27;4.73;;;;;;;;;;4978014;28;20968;-86
2023/04/21 08:57:34;;;;;;;8.97;6.60;;;;;;;;;;4977778;28;20449;-94
2023/04/21 09:00:01;;;;;;;6.00;5.40;;;;;;;;;;4978787;28;20538;-89
2023/04/21 09:02:29;;;;;;;7.53;4.80;;;;;;;;;;4978649;28;20458;-93
2023/04/21 09:04:58;;;;;;;4.13;3.73;;;;;;;;;;4977563;28;20871;-91
2023/04/21 09:07:41;;;;;;;5.20;4.37;;;15.60;91.30;;;;;;4976250;28;20876;-85
2023/04/21 09:10:09;;;;;;;4.60;3.60;;;;;;;;;;4978636;28;20478;-85
2023/04/21 09:12:39;;;;;;;5.63;4.00;;;16.30;90.00;;;;;;4977271;28;20469;-93
2023/04/21 09:15:06;;;;;;;5.50;4.73;;;;;;;;;;4977312;28;20456;-92
2023/04/21 09:17:35;;;;;;;7.83;6.10;;;;;;;;;;4977195;28;20446;-92
2023/04/21 09:20:14;;;;;;;6.67;5.60;;;17.00;92.70;;;;;;4977146;28;20442;-91
2023/04/21 09:22:43;;;;;;;7.10;5.60;;;;;;;;;;4976730;28;20449;-93
2023/04/21 09:25:10;;;;;;;5.10;4.60;;;;;;;;;;4977159;28;20477;-93
2023/04/21 09:27:37;;;;;;;9.53;5.77;;;;;;;;;;4976711;28;20958;-85
2023/04/21 09:30:06;;;;;;;218.97;96.00;;;;;;;;;;4976065;28;20832;-88
2023/04/21 09:32:36;;;;;;;5.83;5.00;;;18.10;90.60;;;;;;4976514;28;20450;-90
2023/04/21 09:35:03;;;;;;;5.80;4.90;;;;;;;;;;4976722;28;21020;-89
2023/04/21 09:37:33;;;;;;;8.10;6.97;;;17.80;90.80;;;;;;4975062;28;20469;-89
2023/04/21 09:40:01;;;;;;;5.60;5.10;;;;;;;;;;4976984;28;20493;-92
2023/04/21 09:42:29;;;;;;;5.70;4.27;;;;;;;;;;4976720;28;20450;-93
2023/04/21 09:44:57;;;;;;;8.60;7.80;;;;;;;;;;4977286;28;20906;-92
2023/04/21 09:47:24;;;;;;;8.53;7.90;;;;;;;;;;4977658;28;20450;-91
2023/04/21 09:49:52;;;;;;;8.93;8.07;;;18.30;89.80;;;;;;4976164;28;20461;-89
2023/04/21 09:52:20;;;;;;;7.93;7.07;;;18.20;85.50;;;;;;4974943;28;20446;-83
2023/04/21 09:54:50;;;;;;;15.57;13.73;;;17.70;92.20;;;;;;4976047;28;20455;-93
2023/04/21 09:57:24;;;;;;;7.73;7.03;;;18.10;95.40;;;;;;4975871;28;20457;-90
2023/04/21 09:59:55;;;;;;;47.67;43.03;;;18.60;92.90;;;;;;4977058;28;20485;-88
2023/04/21 10:02:25;;;;;;;69.97;43.33;;;;;;;;;;4976360;28;20453;-94
2023/04/21 10:04:52;;;;;;;216.27;94.23;;;;;;;;;;4975508;28;21131;-89
2023/04/21 10:07:19;;;;;;;212.40;93.80;;;;;;;;;;4974504;28;20981;-84
2023/04/21 10:09:48;;;;;;;216.57;92.57;;;;;;;;;;4975479;28;20501;-90
2023/04/21 10:12:15;;;;;;;216.57;92.50;;;;;;;;;;4986446;28;20981;-79
2023/04/21 10:14:44;;;;;;;96.23;62.57;;;;;;;;;;4991225;28;20950;-93
2023/04/21 10:17:11;;;;;;;215.57;92.97;;;;;;;;;;4975621;28;20453;-94
2023/04/21 10:19:39;;;;;;;212.30;91.93;;;;;;;;;;4975594;28;20450;-86
2023/04/21 10:22:07;;;;;;;7.17;6.47;;;;;;;;;;4974510;28;20465;-81
2023/04/21 10:24:38;;;;;;;6.27;5.07;;;18.20;79.80;;;;;;4975658;28;21093;-88
2023/04/21 10:27:05;;;;;;;6.07;4.83;;;;;;;;;;4973449;28;20989;-83
2023/04/21 10:29:34;;;;;;;5.90;4.80;;;18.70;81.00;;;;;;4974514;28;20454;-86
2023/04/21 10:32:03;;;;;;;6.53;5.60;;;18.70;79.70;;;;;;4975843;28;21033;-93
2023/04/21 10:34:35;;;;;;;5.70;4.90;;;18.30;80.30;;;;;;4976034;28;20447;-95
2023/04/21 10:37:18;;;;;;;6.60;5.90;;;18.00;76.30;;;;;;4979800;28;20446;-88
2023/04/21 10:40:00;;;;;;;6.47;5.80;;;18.00;82.90;;;;;;4975263;28;20445;-88
2023/04/21 10:42:35;;;;;;;6.50;5.40;;;18.00;72.10;;;;;;4973490;28;20968;-78
2023/04/21 10:45:12;;;;;;;7.37;6.27;;;18.50;70.60;;;;;;4975717;28;20493;-87
2023/04/21 10:47:53;;;;;;;6.50;5.80;;;18.40;80.40;;;;;;4978889;28;20454;-90
2023/04/21 10:50:22;;;;;;;6.40;5.80;;;18.60;77.50;;;;;;4973889;28;20446;-84
2023/04/21 10:52:55;;;;;;;7.50;6.20;;;18.30;72.00;;;;;;4974552;28;20454;-82
2023/04/21 10:55:26;;;;;;;7.17;6.47;;;18.50;70.40;;;;;;4974842;28;20454;-88
2023/04/21 10:57:53;;;;;;;8.50;6.20;;;;;;;;;;4974786;28;20451;-87
2023/04/21 11:00:22;;;;;;;7.30;6.60;;;18.70;77.00;;;;;;4974867;28;20956;-85
2023/04/21 11:02:59;;;;;;;8.37;6.90;;;18.90;69.20;;;;;;4974970;28;20492;-82
2023/04/21 11:05:30;;;;;;;7.50;6.30;;;18.70;80.40;;;;;;4973805;28;20445;-93
2023/04/21 11:08:12;;;;;;;7.43;6.73;;;18.60;73.10;;;;;;4974846;28;20457;-85
2023/04/21 11:10:44;;;;;;;6.43;5.73;;;19.30;75.30;;;;;;4974953;28;20501;-86
2023/04/21 11:13:11;;;;;;;6.77;5.87;;;;;;;;;;4974530;28;20470;-79
2023/04/21 11:15:38;;;;;;;7.63;6.87;;;;;;;;;;4974438;28;20458;-83
2023/04/21 11:18:07;;;;;;;9.00;7.70;;;18.30;80.60;;;;;;4974276;28;20461;-84
2023/04/21 11:20:34;;;;;;;8.50;7.13;;;;;;;;;;4973073;28;20469;-86
2023/04/21 11:23:01;;;;;;;8.70;7.80;;;;;;;;;;4974233;28;20490;-84
2023/04/21 11:25:30;;;;;;;7.13;6.40;;;18.80;86.60;;;;;;4974326;28;20458;-87
2023/04/21 11:27:58;;;;;;;7.73;6.80;;;18.80;82.40;;;;;;4974604;28;20457;-79
2023/04/21 11:30:32;;;;;;;8.90;7.20;;;;;;;;;;4973944;28;20450;-82
2023/04/21 11:33:00;;;;;;;7.23;5.97;;;;;;;;;;4974019;28;20466;-85
2023/04/21 11:35:28;;;;;;;14.23;9.33;;;18.70;91.30;;;;;;4973151;28;20470;-82
2023/04/21 11:37:56;;;;;;;8.90;8.00;;;;;;;;;;4974841;28;20453;-91
2023/04/21 11:40:23;;;;;;;7.83;6.80;;;;;;;;;;4976809;28;20540;-93
2023/04/21 11:42:50;;;;;;;11.40;7.40;;;;;;;;;;4981159;28;20461;-86
2023/04/21 11:45:18;;;;;;;7.50;6.20;;;18.80;92.10;;;;;;4978906;28;20461;-87
2023/04/21 11:47:45;;;;;;;11.00;8.70;;;;;;;;;;4980088;28;20449;-90
2023/04/21 11:50:12;;;;;;;9.73;7.63;;;;;;;;;;4978223;28;20864;-88
2023/04/21 11:52:42;;;;;;;8.63;7.43;;;;;;;;;;4978503;28;20839;-94
2023/04/21 11:55:14;;;;;;;6.97;6.27;;;18.40;89.00;;;;;;4978435;28;20462;-86
2023/04/21 11:57:41;;;;;;;9.53;8.13;;;;;;;;;;4977727;28;20520;-85
2023/04/21 12:00:10;;;;;;;80.03;41.30;;;19.40;94.20;;;;;;4977698;28;20449;-90
2023/04/21 12:02:37;;;;;;;7.90;7.10;;;;;;;;;;4978264;28;20458;-86
2023/04/21 12:05:06;;;;;;;7.77;6.50;;;19.50;87.40;;;;;;4978271;28;20810;-88
2023/04/21 12:07:33;;;;;;;7.27;6.57;;;;;;;;;;4976649;28;20488;-88
2023/04/21 12:10:02;;;;;;;10.23;6.87;;;18.70;90.20;;;;;;4958121;28;20474;-87
2023/04/21 12:12:30;;;;;;;7.57;5.63;;;19.20;90.30;;;;;;4958254;28;20578;-86
2023/04/21 12:14:58;;;;;;;8.67;6.83;;;;;;;;;;4958058;29;20798;-81
2023/04/21 12:17:25;;;;;;;8.10;7.03;;;;;;;;;;4958434;28;20856;-80
2023/04/21 12:19:52;;;;;;;200.60;90.60;;;;;;;;;;4958294;28;20471;-85
2023/04/21 12:22:20;;;;;;;58.17;52.33;;;;;;;;;;4957086;28;20450;-82
2023/04/21 12:24:47;;;;;;;5.60;5.10;;;;;;;;;;4957961;28;20453;-80
2023/04/21 12:27:15;;;;;;;6.50;5.63;;;;;;;;;;4958295;28;20454;-82
2023/04/21 12:29:43;;;;;;;12.60;9.80;;;;;;;;;;4957757;28;20451;-80
2023/04/21 12:32:10;;;;;;;6.13;5.10;;;;;;;;;;4957952;28;20498;-82
2023/04/21 12:34:37;;;;;;;6.83;5.10;;;;;;;;;;4957898;28;20808;-85
2023/04/21 12:37:04;;;;;;;6.73;4.70;;;;;;;;;;4956773;28;20466;-81
2023/04/21 12:39:32;;;;;;;5.60;4.87;;;;;;;;;;4957944;28;20498;-80
2023/04/21 12:41:59;;;;;;;5.47;4.30;;;;;;;;;;4957703;28;20459;-83
2023/04/21 12:44:27;;;;;;;5.00;4.50;;;;;;;;;;4956799;28;20466;-81
2023/04/21 12:46:55;;;;;;;6.03;5.37;;;;;;;;;;4976532;28;20443;-77
2023/04/21 12:49:22;;;;;;;6.93;5.40;;;;;;;;;;4965825;28;20950;-84
2023/04/21 12:51:50;;;;;;;4.00;3.33;;;;;;;;;;4956623;28;20509;-84
2023/04/21 12:54:17;;;;;;;4.60;4.00;;;;;;;;;;4957645;28;20455;-82
2023/04/21 12:56:45;;;;;;;46.43;42.30;;;;;;;;;;4957396;28;20459;-81
2023/04/21 12:59:12;;;;;;;5.00;4.50;;;;;;;;;;4957701;28;20446;-82
2023/04/21 13:01:41;;;;;;;4.93;4.20;;;19.70;77.70;;;;;;4957579;28;20458;-82
2023/04/21 13:04:08;;;;;;;3.77;3.47;;;;;;;;;;4957368;29;20479;-82
2023/04/21 13:06:35;;;;;;;5.70;4.40;;;;;;;;;;4956342;28;20482;-81
2023/04/21 13:09:03;;;;;;;32.80;30.33;;;;;;;;;;4958079;28;20447;-81
2023/04/21 13:11:30;;;;;;;3.60;3.30;;;;;;;;;;4954340;28;20499;-78
2023/04/21 13:13:57;;;;;;;3.43;3.10;;;;;;;;;;4956239;28;20462;-84
2023/04/21 13:16:24;;;;;;;3.60;3.30;;;;;;;;;;4957443;28;20458;-81
2023/04/21 13:18:52;;;;;;;3.83;3.20;;;20.90;70.00;;;;;;4958017;28;20444;-76
2023/04/21 13:21:21;;;;;;;4.70;3.60;;;;;;;;;;4957371;28;20458;-80
2023/04/21 13:23:48;;;;;;;3.27;2.90;;;;;;;;;;4957132;28;20537;-80
2023/04/21 13:26:16;;;;;;;5.57;3.50;;;;;;;;;;4957486;28;20447;-79
2023/04/21 13:28:43;;;;;;;8.30;3.20;;;;;;;;;;4957029;28;20458;-80
2023/04/21 13:31:10;;;;;;;3.83;3.43;;;;;;;;;;4956913;28;20545;-84
2023/04/21 13:33:37;;;;;;;4.70;4.30;;;;;;;;;;4957059;28;20470;-82
2023/04/21 13:36:06;;;;;;;5.67;5.17;;;21.20;73.80;;;;;;4955638;28;20462;-82
2023/04/21 13:38:33;;;;;;;3.13;2.83;;;;;;;;;;4956679;28;20451;-85
2023/04/21 13:41:00;;;;;;;2.83;2.60;;;;;;;;;;4957079;28;20455;-82
2023/04/21 13:43:27;;;;;;;3.70;3.30;;;;;;;;;;4956549;28;20458;-82
2023/04/21 13:45:54;;;;;;;3.97;3.50;;;;;;;;;;4956656;28;20459;-76
2023/04/21 13:48:23;;;;;;;3.60;3.30;;;;;;;;;;4956639;28;20456;-80
2023/04/21 13:50:50;;;;;;;3.43;3.13;;;;;;;;;;4955346;28;20463;-81
2023/04/21 13:53:18;;;;;;;4.17;3.70;;;;;;;;;;4956423;28;20899;-84
2023/04/21 13:55:45;;;;;;;4.10;3.33;;;;;;;;;;4956625;28;20451;-83
2023/04/21 13:58:12;;;;;;;3.37;2.90;;;;;;;;;;4956460;28;20447;-85
2023/04/21 14:00:39;;;;;;;4.73;3.00;;;;;;;;;;4956482;28;20461;-83
2023/04/21 14:03:06;;;;;;;4.20;2.80;;;;;;;;;;4955577;28;20452;-89
2023/04/21 14:05:33;;;;;;;3.83;3.43;;;;;;;;;;4954777;28;20486;-82
2023/04/21 14:08:01;;;;;;;4.60;4.20;;;;;;;;;;4956212;28;20458;-81
2023/04/21 14:10:29;;;;;;;3.20;2.83;;;21.60;71.80;;;;;;4956181;28;20802;-82
2023/04/21 14:12:56;;;;;;;3.50;3.00;;;;;;;;;;4956188;28;20506;-82